sensor_id;sensor_type;location;lat;lon;timestamp;P1;durP1;ratioP1;P2;durP2;ratioP2
6113;SDS011;3087;48.392;10.836;2022-12-29T00:01:47;4.87;;;2.70;;
6113;SDS011;3087;48.392;10.836;2022-12-29T00:04:13;4.30;;;2.60;;
6113;SDS011;3087;48.392;10.836;2022-12-29T00:06:39;2.40;;;2.20;;
6113;SDS011;3087;48.392;10.836;2022-12-29T00:09:05;3.47;;;2.20;;
6113;SDS011;3087;48.392;10.836;2022-12-29T00:11:31;3.40;;;2.53;;
6113;SDS011;3087;48.392;10.836;2022-12-29T00:13:56;2.63;;;2.10;;
6113;SDS011;3087;48.392;10.836;2022-12-29T00:16:42;2.80;;;2.60;;
6113;SDS011;3087;48.392;10.836;2022-12-29T00:19:09;3.17;;;2.60;;
6113;SDS011;3087;48.392;10.836;2022-12-29T00:21:55;3.27;;;2.20;;
6113;SDS011;3087;48.392;10.836;2022-12-29T00:24:39;3.50;;;2.73;;
6113;SDS011;3087;48.392;10.836;2022-12-29T00:27:25;2.87;;;2.50;;
6113;SDS011;3087;48.392;10.836;2022-12-29T00:30:10;2.57;;;2.33;;
6113;SDS011;3087;48.392;10.836;2022-12-29T00:32:56;3.07;;;2.70;;
6113;SDS011;3087;48.392;10.836;2022-12-29T00:38:36;3.03;;;2.33;;
6113;SDS011;3087;48.392;10.836;2022-12-29T00:41:23;4.47;;;2.10;;
6113;SDS011;3087;48.392;10.836;2022-12-29T00:44:07;3.50;;;2.37;;
6113;SDS011;3087;48.392;10.836;2022-12-29T00:46:38;3.10;;;2.47;;
6113;SDS011;3087;48.392;10.836;2022-12-29T00:49:06;3.60;;;2.30;;
6113;SDS011;3087;48.392;10.836;2022-12-29T00:51:53;3.13;;;2.53;;
6113;SDS011;3087;48.392;10.836;2022-12-29T00:54:20;4.83;;;2.63;;
6113;SDS011;3087;48.392;10.836;2022-12-29T00:56:46;4.00;;;2.70;;
6113;SDS011;3087;48.392;10.836;2022-12-29T00:59:13;2.83;;;2.53;;
6113;SDS011;3087;48.392;10.836;2022-12-29T01:01:38;3.23;;;2.37;;
6113;SDS011;3087;48.392;10.836;2022-12-29T01:04:05;2.63;;;2.30;;
6113;SDS011;3087;48.392;10.836;2022-12-29T01:06:31;3.70;;;2.67;;
6113;SDS011;3087;48.392;10.836;2022-12-29T01:08:57;4.30;;;3.90;;
6113;SDS011;3087;48.392;10.836;2022-12-29T01:11:42;2.97;;;2.50;;
6113;SDS011;3087;48.392;10.836;2022-12-29T01:14:07;2.73;;;2.43;;
6113;SDS011;3087;48.392;10.836;2022-12-29T01:16:33;2.33;;;2.13;;
6113;SDS011;3087;48.392;10.836;2022-12-29T01:18:59;2.60;;;2.40;;
6113;SDS011;3087;48.392;10.836;2022-12-29T01:21:25;4.53;;;2.80;;
6113;SDS011;3087;48.392;10.836;2022-12-29T01:23:50;3.33;;;2.40;;
6113;SDS011;3087;48.392;10.836;2022-12-29T01:26:17;2.40;;;2.20;;
6113;SDS011;3087;48.392;10.836;2022-12-29T01:28:43;3.63;;;2.70;;
6113;SDS011;3087;48.392;10.836;2022-12-29T01:31:09;2.87;;;2.60;;
6113;SDS011;3087;48.392;10.836;2022-12-29T01:33:36;2.77;;;2.33;;
6113;SDS011;3087;48.392;10.836;2022-12-29T01:36:05;4.70;;;2.70;;
6113;SDS011;3087;48.392;10.836;2022-12-29T01:38:32;3.07;;;2.53;;
6113;SDS011;3087;48.392;10.836;2022-12-29T01:40:59;2.93;;;2.60;;
6113;SDS011;3087;48.392;10.836;2022-12-29T01:51:50;2.63;;;2.30;;
6113;SDS011;3087;48.392;10.836;2022-12-29T01:54:28;2.80;;;2.50;;
6113;SDS011;3087;48.392;10.836;2022-12-29T01:57:01;4.60;;;2.63;;
6113;SDS011;3087;48.392;10.836;2022-12-29T01:59:31;2.40;;;2.20;;
6113;SDS011;3087;48.392;10.836;2022-12-29T02:02:01;4.33;;;2.87;;
6113;SDS011;3087;48.392;10.836;2022-12-29T02:04:27;2.50;;;2.30;;
6113;SDS011;3087;48.392;10.836;2022-12-29T02:06:57;2.80;;;2.30;;
6113;SDS011;3087;48.392;10.836;2022-12-29T02:09:27;2.67;;;2.33;;
6113;SDS011;3087;48.392;10.836;2022-12-29T02:11:53;5.17;;;2.50;;
6113;SDS011;3087;48.392;10.836;2022-12-29T02:14:19;2.50;;;1.93;;
6113;SDS011;3087;48.392;10.836;2022-12-29T02:22:27;3.63;;;2.20;;
6113;SDS011;3087;48.392;10.836;2022-12-29T02:44:30;2.37;;;1.80;;
6113;SDS011;3087;48.392;10.836;2022-12-29T02:49:57;2.53;;;2.23;;
6113;SDS011;3087;48.392;10.836;2022-12-29T02:52:38;2.70;;;2.00;;
6113;SDS011;3087;48.392;10.836;2022-12-29T02:55:11;2.30;;;2.10;;
6113;SDS011;3087;48.392;10.836;2022-12-29T02:57:37;3.33;;;2.40;;
6113;SDS011;3087;48.392;10.836;2022-12-29T03:08:18;3.93;;;2.10;;
6113;SDS011;3087;48.392;10.836;2022-12-29T03:16:32;2.87;;;2.00;;
6113;SDS011;3087;48.392;10.836;2022-12-29T03:19:00;3.17;;;2.00;;
6113;SDS011;3087;48.392;10.836;2022-12-29T03:21:37;4.17;;;2.13;;
6113;SDS011;3087;48.392;10.836;2022-12-29T03:24:35;2.20;;;2.00;;
6113;SDS011;3087;48.392;10.836;2022-12-29T03:27:05;6.30;;;2.33;;
6113;SDS011;3087;48.392;10.836;2022-12-29T03:29:35;2.07;;;1.87;;
6113;SDS011;3087;48.392;10.836;2022-12-29T03:32:06;2.17;;;1.93;;
6113;SDS011;3087;48.392;10.836;2022-12-29T03:34:34;2.83;;;2.00;;
6113;SDS011;3087;48.392;10.836;2022-12-29T03:37:06;2.50;;;2.20;;
6113;SDS011;3087;48.392;10.836;2022-12-29T03:39:37;4.27;;;2.13;;
6113;SDS011;3087;48.392;10.836;2022-12-29T03:42:05;7.00;;;1.83;;
6113;SDS011;3087;48.392;10.836;2022-12-29T03:44:35;3.07;;;1.80;;
6113;SDS011;3087;48.392;10.836;2022-12-29T03:47:04;2.43;;;2.10;;
6113;SDS011;3087;48.392;10.836;2022-12-29T03:49:30;2.77;;;1.87;;
6113;SDS011;3087;48.392;10.836;2022-12-29T03:51:56;2.77;;;1.67;;
6113;SDS011;3087;48.392;10.836;2022-12-29T03:54:22;2.40;;;1.67;;
6113;SDS011;3087;48.392;10.836;2022-12-29T03:56:48;2.63;;;1.70;;
6113;SDS011;3087;48.392;10.836;2022-12-29T03:59:14;2.13;;;1.70;;
6113;SDS011;3087;48.392;10.836;2022-12-29T04:01:39;2.67;;;1.60;;
6113;SDS011;3087;48.392;10.836;2022-12-29T04:04:05;1.97;;;1.70;;
6113;SDS011;3087;48.392;10.836;2022-12-29T04:06:31;1.60;;;1.50;;
6113;SDS011;3087;48.392;10.836;2022-12-29T04:08:56;2.40;;;1.60;;
6113;SDS011;3087;48.392;10.836;2022-12-29T04:11:22;1.70;;;1.60;;
6113;SDS011;3087;48.392;10.836;2022-12-29T04:13:47;2.10;;;1.70;;
6113;SDS011;3087;48.392;10.836;2022-12-29T04:16:13;1.60;;;1.50;;
6113;SDS011;3087;48.392;10.836;2022-12-29T04:18:39;2.53;;;1.75;;
6113;SDS011;3087;48.392;10.836;2022-12-29T04:21:05;1.95;;;1.75;;
6113;SDS011;3087;48.392;10.836;2022-12-29T04:23:32;1.50;;;1.40;;
6113;SDS011;3087;48.392;10.836;2022-12-29T04:26:00;3.30;;;1.80;;
6113;SDS011;3087;48.392;10.836;2022-12-29T04:28:26;2.55;;;1.60;;
6113;SDS011;3087;48.392;10.836;2022-12-29T04:30:52;2.45;;;1.48;;
6113;SDS011;3087;48.392;10.836;2022-12-29T04:33:18;1.70;;;1.60;;
6113;SDS011;3087;48.392;10.836;2022-12-29T04:35:43;1.95;;;1.58;;
6113;SDS011;3087;48.392;10.836;2022-12-29T04:38:09;1.60;;;1.50;;
6113;SDS011;3087;48.392;10.836;2022-12-29T04:40:35;1.90;;;1.60;;
6113;SDS011;3087;48.392;10.836;2022-12-29T04:43:03;2.15;;;1.67;;
6113;SDS011;3087;48.392;10.836;2022-12-29T04:45:28;1.77;;;1.40;;
6113;SDS011;3087;48.392;10.836;2022-12-29T04:47:54;1.67;;;1.50;;
6113;SDS011;3087;48.392;10.836;2022-12-29T04:50:19;2.07;;;1.50;;
6113;SDS011;3087;48.392;10.836;2022-12-29T04:52:45;1.60;;;1.50;;
6113;SDS011;3087;48.392;10.836;2022-12-29T04:55:11;3.00;;;1.75;;
6113;SDS011;3087;48.392;10.836;2022-12-29T04:57:36;2.33;;;1.50;;
6113;SDS011;3087;48.392;10.836;2022-12-29T05:00:03;2.08;;;1.77;;
6113;SDS011;3087;48.392;10.836;2022-12-29T05:02:29;4.55;;;1.95;;
6113;SDS011;3087;48.392;10.836;2022-12-29T05:04:54;2.20;;;1.60;;
6113;SDS011;3087;48.392;10.836;2022-12-29T05:07:20;4.53;;;1.70;;
6113;SDS011;3087;48.392;10.836;2022-12-29T05:09:46;1.90;;;1.67;;
6113;SDS011;3087;48.392;10.836;2022-12-29T05:12:11;1.67;;;1.58;;
6113;SDS011;3087;48.392;10.836;2022-12-29T05:14:37;2.65;;;1.77;;
6113;SDS011;3087;48.392;10.836;2022-12-29T05:17:02;1.70;;;1.48;;
6113;SDS011;3087;48.392;10.836;2022-12-29T05:19:28;1.70;;;1.60;;
6113;SDS011;3087;48.392;10.836;2022-12-29T05:21:53;1.80;;;1.67;;
6113;SDS011;3087;48.392;10.836;2022-12-29T05:24:19;1.73;;;1.60;;
6113;SDS011;3087;48.392;10.836;2022-12-29T05:26:45;1.85;;;1.50;;
6113;SDS011;3087;48.392;10.836;2022-12-29T05:29:10;2.30;;;1.70;;
6113;SDS011;3087;48.392;10.836;2022-12-29T05:31:36;1.70;;;1.60;;
6113;SDS011;3087;48.392;10.836;2022-12-29T05:34:02;2.05;;;1.73;;
6113;SDS011;3087;48.392;10.836;2022-12-29T05:36:27;3.35;;;2.75;;
6113;SDS011;3087;48.392;10.836;2022-12-29T05:38:53;3.85;;;2.25;;
6113;SDS011;3087;48.392;10.836;2022-12-29T05:41:19;2.63;;;1.80;;
6113;SDS011;3087;48.392;10.836;2022-12-29T05:43:44;2.13;;;1.92;;
6113;SDS011;3087;48.392;10.836;2022-12-29T05:46:10;2.45;;;1.60;;
6113;SDS011;3087;48.392;10.836;2022-12-29T05:48:36;1.60;;;1.50;;
6113;SDS011;3087;48.392;10.836;2022-12-29T05:51:01;1.98;;;1.63;;
6113;SDS011;3087;48.392;10.836;2022-12-29T05:53:27;1.85;;;1.60;;
6113;SDS011;3087;48.392;10.836;2022-12-29T05:55:53;2.63;;;1.67;;
6113;SDS011;3087;48.392;10.836;2022-12-29T05:58:18;2.75;;;1.58;;
6113;SDS011;3087;48.392;10.836;2022-12-29T06:00:44;1.63;;;1.52;;
6113;SDS011;3087;48.392;10.836;2022-12-29T06:03:10;3.33;;;1.83;;
6113;SDS011;3087;48.392;10.836;2022-12-29T06:05:36;2.88;;;1.80;;
6113;SDS011;3087;48.392;10.836;2022-12-29T06:08:01;1.90;;;1.70;;
6113;SDS011;3087;48.392;10.836;2022-12-29T06:10:27;2.17;;;1.88;;
6113;SDS011;3087;48.392;10.836;2022-12-29T06:12:52;1.90;;;1.67;;
6113;SDS011;3087;48.392;10.836;2022-12-29T06:15:18;3.15;;;1.80;;
6113;SDS011;3087;48.392;10.836;2022-12-29T06:17:44;2.20;;;1.98;;
6113;SDS011;3087;48.392;10.836;2022-12-29T06:20:09;2.58;;;2.28;;
6113;SDS011;3087;48.392;10.836;2022-12-29T06:22:36;2.25;;;1.73;;
6113;SDS011;3087;48.392;10.836;2022-12-29T06:25:02;3.60;;;1.88;;
6113;SDS011;3087;48.392;10.836;2022-12-29T06:27:28;2.80;;;1.63;;
6113;SDS011;3087;48.392;10.836;2022-12-29T06:29:54;3.15;;;2.20;;
6113;SDS011;3087;48.392;10.836;2022-12-29T06:32:19;1.98;;;1.73;;
6113;SDS011;3087;48.392;10.836;2022-12-29T06:34:45;5.38;;;2.03;;
6113;SDS011;3087;48.392;10.836;2022-12-29T06:37:11;2.30;;;2.10;;
6113;SDS011;3087;48.392;10.836;2022-12-29T06:39:37;1.70;;;1.60;;
6113;SDS011;3087;48.392;10.836;2022-12-29T06:42:02;2.20;;;1.90;;
6113;SDS011;3087;48.392;10.836;2022-12-29T06:44:28;3.30;;;2.07;;
6113;SDS011;3087;48.392;10.836;2022-12-29T06:46:54;2.50;;;1.80;;
6113;SDS011;3087;48.392;10.836;2022-12-29T06:49:20;5.23;;;1.80;;
6113;SDS011;3087;48.392;10.836;2022-12-29T06:51:45;6.07;;;3.60;;
6113;SDS011;3087;48.392;10.836;2022-12-29T06:54:11;2.58;;;2.10;;
6113;SDS011;3087;48.392;10.836;2022-12-29T06:56:37;3.00;;;2.13;;
6113;SDS011;3087;48.392;10.836;2022-12-29T06:59:03;3.95;;;1.80;;
6113;SDS011;3087;48.392;10.836;2022-12-29T07:01:28;3.33;;;2.13;;
6113;SDS011;3087;48.392;10.836;2022-12-29T07:03:54;3.30;;;2.03;;
6113;SDS011;3087;48.392;10.836;2022-12-29T07:06:20;2.63;;;2.38;;
6113;SDS011;3087;48.392;10.836;2022-12-29T07:08:45;3.47;;;2.03;;
6113;SDS011;3087;48.392;10.836;2022-12-29T07:11:11;3.83;;;2.00;;
6113;SDS011;3087;48.392;10.836;2022-12-29T07:13:37;4.03;;;1.80;;
6113;SDS011;3087;48.392;10.836;2022-12-29T07:16:09;3.00;;;1.70;;
6113;SDS011;3087;48.392;10.836;2022-12-29T07:18:35;3.15;;;2.13;;
6113;SDS011;3087;48.392;10.836;2022-12-29T07:21:01;2.15;;;1.95;;
6113;SDS011;3087;48.392;10.836;2022-12-29T07:23:27;2.40;;;2.10;;
6113;SDS011;3087;48.392;10.836;2022-12-29T07:26:00;3.13;;;1.92;;
6113;SDS011;3087;48.392;10.836;2022-12-29T07:28:27;2.85;;;2.20;;
6113;SDS011;3087;48.392;10.836;2022-12-29T07:30:53;3.53;;;1.90;;
6113;SDS011;3087;48.392;10.836;2022-12-29T07:33:18;3.47;;;2.20;;
6113;SDS011;3087;48.392;10.836;2022-12-29T07:35:44;4.43;;;2.27;;
6113;SDS011;3087;48.392;10.836;2022-12-29T07:38:09;2.50;;;1.90;;
6113;SDS011;3087;48.392;10.836;2022-12-29T07:40:35;3.70;;;2.10;;
6113;SDS011;3087;48.392;10.836;2022-12-29T07:43:00;3.90;;;2.00;;
6113;SDS011;3087;48.392;10.836;2022-12-29T07:45:26;3.97;;;2.10;;
6113;SDS011;3087;48.392;10.836;2022-12-29T07:47:52;4.05;;;2.10;;
6113;SDS011;3087;48.392;10.836;2022-12-29T07:50:17;2.40;;;2.20;;
6113;SDS011;3087;48.392;10.836;2022-12-29T07:52:43;2.90;;;1.70;;
6113;SDS011;3087;48.392;10.836;2022-12-29T07:55:09;3.53;;;2.10;;
6113;SDS011;3087;48.392;10.836;2022-12-29T07:57:35;5.93;;;3.08;;
6113;SDS011;3087;48.392;10.836;2022-12-29T08:00:01;2.72;;;2.45;;
6113;SDS011;3087;48.392;10.836;2022-12-29T08:02:28;4.97;;;2.45;;
6113;SDS011;3087;48.392;10.836;2022-12-29T08:04:54;3.22;;;2.10;;
6113;SDS011;3087;48.392;10.836;2022-12-29T08:07:20;2.92;;;2.00;;
6113;SDS011;3087;48.392;10.836;2022-12-29T08:09:45;4.95;;;2.08;;
6113;SDS011;3087;48.392;10.836;2022-12-29T08:12:11;4.07;;;2.13;;
6113;SDS011;3087;48.392;10.836;2022-12-29T08:14:37;3.08;;;2.30;;
6113;SDS011;3087;48.392;10.836;2022-12-29T08:17:02;3.17;;;2.47;;
6113;SDS011;3087;48.392;10.836;2022-12-29T08:19:28;2.42;;;2.20;;
6113;SDS011;3087;48.392;10.836;2022-12-29T08:21:54;4.75;;;1.90;;
6113;SDS011;3087;48.392;10.836;2022-12-29T08:24:20;7.32;;;2.42;;
6113;SDS011;3087;48.392;10.836;2022-12-29T08:26:46;3.70;;;2.30;;
6113;SDS011;3087;48.392;10.836;2022-12-29T08:29:11;6.90;;;2.90;;
6113;SDS011;3087;48.392;10.836;2022-12-29T08:31:37;3.60;;;2.22;;
6113;SDS011;3087;48.392;10.836;2022-12-29T08:34:03;4.55;;;2.42;;
6113;SDS011;3087;48.392;10.836;2022-12-29T08:36:29;3.15;;;2.40;;
6113;SDS011;3087;48.392;10.836;2022-12-29T08:38:55;3.35;;;2.08;;
6113;SDS011;3087;48.392;10.836;2022-12-29T08:41:21;3.60;;;2.30;;
6113;SDS011;3087;48.392;10.836;2022-12-29T08:43:47;4.03;;;2.17;;
6113;SDS011;3087;48.392;10.836;2022-12-29T08:46:13;5.90;;;2.40;;
6113;SDS011;3087;48.392;10.836;2022-12-29T08:48:39;4.75;;;2.30;;
6113;SDS011;3087;48.392;10.836;2022-12-29T08:51:04;6.75;;;2.72;;
6113;SDS011;3087;48.392;10.836;2022-12-29T08:53:30;3.25;;;2.55;;
6113;SDS011;3087;48.392;10.836;2022-12-29T08:55:58;4.53;;;3.00;;
6113;SDS011;3087;48.392;10.836;2022-12-29T08:58:25;3.08;;;2.00;;
6113;SDS011;3087;48.392;10.836;2022-12-29T09:00:54;2.47;;;2.05;;
6113;SDS011;3087;48.392;10.836;2022-12-29T09:03:21;4.68;;;2.60;;
6113;SDS011;3087;48.392;10.836;2022-12-29T09:05:51;4.18;;;2.50;;
6113;SDS011;3087;48.392;10.836;2022-12-29T09:08:18;2.83;;;2.17;;
6113;SDS011;3087;48.392;10.836;2022-12-29T09:10:44;6.53;;;4.45;;
6113;SDS011;3087;48.392;10.836;2022-12-29T09:13:11;9.13;;;5.55;;
6113;SDS011;3087;48.392;10.836;2022-12-29T09:15:38;8.52;;;6.20;;
6113;SDS011;3087;48.392;10.836;2022-12-29T09:18:04;3.55;;;2.80;;
6113;SDS011;3087;48.392;10.836;2022-12-29T09:20:30;3.08;;;2.28;;
6113;SDS011;3087;48.392;10.836;2022-12-29T09:22:55;3.72;;;2.40;;
6113;SDS011;3087;48.392;10.836;2022-12-29T09:25:21;2.50;;;2.30;;
6113;SDS011;3087;48.392;10.836;2022-12-29T09:27:49;3.30;;;2.33;;
6113;SDS011;3087;48.392;10.836;2022-12-29T09:30:17;10.45;;;3.42;;
6113;SDS011;3087;48.392;10.836;2022-12-29T09:32:43;4.45;;;2.65;;
6113;SDS011;3087;48.392;10.836;2022-12-29T09:35:09;3.85;;;2.30;;
6113;SDS011;3087;48.392;10.836;2022-12-29T09:37:34;3.03;;;2.50;;
6113;SDS011;3087;48.392;10.836;2022-12-29T09:40:00;4.68;;;2.45;;
6113;SDS011;3087;48.392;10.836;2022-12-29T09:42:33;3.08;;;2.20;;
6113;SDS011;3087;48.392;10.836;2022-12-29T09:45:19;5.72;;;2.30;;
6113;SDS011;3087;48.392;10.836;2022-12-29T09:48:20;3.22;;;2.00;;
6113;SDS011;3087;48.392;10.836;2022-12-29T09:50:52;2.55;;;2.33;;
6113;SDS011;3087;48.392;10.836;2022-12-29T09:53:27;5.10;;;2.20;;
6113;SDS011;3087;48.392;10.836;2022-12-29T09:56:02;4.70;;;2.17;;
6113;SDS011;3087;48.392;10.836;2022-12-29T09:58:32;2.88;;;2.08;;
6113;SDS011;3087;48.392;10.836;2022-12-29T10:01:01;2.83;;;2.03;;
6113;SDS011;3087;48.392;10.836;2022-12-29T10:06:11;3.03;;;2.35;;
6113;SDS011;3087;48.392;10.836;2022-12-29T10:09:08;5.00;;;2.30;;
6113;SDS011;3087;48.392;10.836;2022-12-29T10:17:15;3.95;;;1.92;;
6113;SDS011;3087;48.392;10.836;2022-12-29T10:23:04;3.40;;;2.30;;
6113;SDS011;3087;48.392;10.836;2022-12-29T10:25:38;2.25;;;1.88;;
6113;SDS011;3087;48.392;10.836;2022-12-29T10:28:10;4.80;;;2.28;;
6113;SDS011;3087;48.392;10.836;2022-12-29T10:30:43;3.05;;;2.00;;
6113;SDS011;3087;48.392;10.836;2022-12-29T10:33:14;3.05;;;2.00;;
6113;SDS011;3087;48.392;10.836;2022-12-29T10:35:43;2.53;;;2.00;;
6113;SDS011;3087;48.392;10.836;2022-12-29T10:41:03;3.15;;;2.50;;
6113;SDS011;3087;48.392;10.836;2022-12-29T10:43:45;3.75;;;2.20;;
6113;SDS011;3087;48.392;10.836;2022-12-29T10:46:17;2.78;;;1.92;;
6113;SDS011;3087;48.392;10.836;2022-12-29T10:48:46;3.80;;;2.40;;
6113;SDS011;3087;48.392;10.836;2022-12-29T10:51:17;2.55;;;2.10;;
6113;SDS011;3087;48.392;10.836;2022-12-29T10:59:22;3.75;;;1.83;;
6113;SDS011;3087;48.392;10.836;2022-12-29T11:01:56;3.40;;;2.38;;
6113;SDS011;3087;48.392;10.836;2022-12-29T11:06:58;2.95;;;2.20;;
6113;SDS011;3087;48.392;10.836;2022-12-29T11:09:29;2.50;;;1.88;;
6113;SDS011;3087;48.392;10.836;2022-12-29T11:11:58;3.92;;;2.20;;
6113;SDS011;3087;48.392;10.836;2022-12-29T11:14:28;2.50;;;1.90;;
6113;SDS011;3087;48.392;10.836;2022-12-29T11:16:59;2.10;;;1.70;;
6113;SDS011;3087;48.392;10.836;2022-12-29T11:19:27;4.60;;;1.70;;
6113;SDS011;3087;48.392;10.836;2022-12-29T11:21:56;2.65;;;1.95;;
6113;SDS011;3087;48.392;10.836;2022-12-29T11:24:46;2.05;;;1.83;;
6113;SDS011;3087;48.392;10.836;2022-12-29T11:27:20;3.13;;;1.85;;
6113;SDS011;3087;48.392;10.836;2022-12-29T11:29:48;2.28;;;1.98;;
6113;SDS011;3087;48.392;10.836;2022-12-29T11:34:45;2.72;;;1.80;;
6113;SDS011;3087;48.392;10.836;2022-12-29T11:37:12;4.97;;;2.20;;
6113;SDS011;3087;48.392;10.836;2022-12-29T11:39:46;3.53;;;1.92;;
6113;SDS011;3087;48.392;10.836;2022-12-29T11:42:35;5.60;;;2.00;;
6113;SDS011;3087;48.392;10.836;2022-12-29T11:45:18;4.93;;;2.10;;
6113;SDS011;3087;48.392;10.836;2022-12-29T11:47:45;3.75;;;2.30;;
6113;SDS011;3087;48.392;10.836;2022-12-29T11:50:21;1.83;;;1.63;;
6113;SDS011;3087;48.392;10.836;2022-12-29T11:52:50;3.95;;;1.90;;
6113;SDS011;3087;48.392;10.836;2022-12-29T11:55:28;2.83;;;2.10;;
6113;SDS011;3087;48.392;10.836;2022-12-29T11:57:56;2.35;;;1.90;;
6113;SDS011;3087;48.392;10.836;2022-12-29T12:00:26;3.08;;;1.98;;
6113;SDS011;3087;48.392;10.836;2022-12-29T12:08:23;2.58;;;2.00;;
6113;SDS011;3087;48.392;10.836;2022-12-29T12:11:11;3.45;;;2.22;;
6113;SDS011;3087;48.392;10.836;2022-12-29T12:16:19;2.33;;;1.70;;
6113;SDS011;3087;48.392;10.836;2022-12-29T12:24:54;5.35;;;1.63;;
6113;SDS011;3087;48.392;10.836;2022-12-29T12:27:32;4.95;;;2.05;;
6113;SDS011;3087;48.392;10.836;2022-12-29T12:30:21;4.97;;;1.83;;
6113;SDS011;3087;48.392;10.836;2022-12-29T12:33:02;2.47;;;1.73;;
6113;SDS011;3087;48.392;10.836;2022-12-29T12:35:46;2.15;;;1.95;;
6113;SDS011;3087;48.392;10.836;2022-12-29T12:41:07;3.42;;;2.05;;
6113;SDS011;3087;48.392;10.836;2022-12-29T12:46:53;3.55;;;1.70;;
6113;SDS011;3087;48.392;10.836;2022-12-29T12:55:18;3.50;;;2.00;;
6113;SDS011;3087;48.392;10.836;2022-12-29T12:57:59;3.42;;;1.80;;
6113;SDS011;3087;48.392;10.836;2022-12-29T13:12:42;2.50;;;1.88;;
6113;SDS011;3087;48.392;10.836;2022-12-29T13:18:27;4.57;;;2.03;;
6113;SDS011;3087;48.392;10.836;2022-12-29T13:21:02;3.70;;;1.98;;
6113;SDS011;3087;48.392;10.836;2022-12-29T13:23:36;2.63;;;1.80;;
6113;SDS011;3087;48.392;10.836;2022-12-29T13:26:28;5.38;;;2.22;;
6113;SDS011;3087;48.392;10.836;2022-12-29T13:29:23;2.35;;;1.95;;
6113;SDS011;3087;48.392;10.836;2022-12-29T13:32:17;6.00;;;2.05;;
6113;SDS011;3087;48.392;10.836;2022-12-29T13:35:12;3.00;;;2.20;;
6113;SDS011;3087;48.392;10.836;2022-12-29T13:38:25;5.82;;;2.30;;
6113;SDS011;3087;48.392;10.836;2022-12-29T13:40:32;3.63;;;1.77;;
6113;SDS011;3087;48.392;10.836;2022-12-29T13:43:04;4.32;;;2.00;;
6113;SDS011;3087;48.392;10.836;2022-12-29T13:45:31;1.95;;;1.73;;
6113;SDS011;3087;48.392;10.836;2022-12-29T13:48:03;2.42;;;1.60;;
6113;SDS011;3087;48.392;10.836;2022-12-29T13:50:35;2.92;;;2.10;;
6113;SDS011;3087;48.392;10.836;2022-12-29T13:58:33;3.38;;;1.83;;
6113;SDS011;3087;48.392;10.836;2022-12-29T14:06:11;3.05;;;2.25;;
6113;SDS011;3087;48.392;10.836;2022-12-29T14:08:37;2.20;;;2.00;;
6113;SDS011;3087;48.392;10.836;2022-12-29T14:11:07;3.00;;;1.92;;
6113;SDS011;3087;48.392;10.836;2022-12-29T14:13:37;4.00;;;2.30;;
6113;SDS011;3087;48.392;10.836;2022-12-29T14:16:05;3.08;;;2.00;;
6113;SDS011;3087;48.392;10.836;2022-12-29T14:18:32;3.42;;;2.00;;
6113;SDS011;3087;48.392;10.836;2022-12-29T14:34:46;3.55;;;2.30;;
6113;SDS011;3087;48.392;10.836;2022-12-29T14:42:43;2.53;;;2.10;;
6113;SDS011;3087;48.392;10.836;2022-12-29T14:47:38;4.15;;;1.95;;
6113;SDS011;3087;48.392;10.836;2022-12-29T14:50:07;3.35;;;2.20;;
6113;SDS011;3087;48.392;10.836;2022-12-29T14:52:47;2.75;;;1.85;;
6113;SDS011;3087;48.392;10.836;2022-12-29T14:57:42;2.72;;;2.05;;
6113;SDS011;3087;48.392;10.836;2022-12-29T15:02:43;3.35;;;2.20;;
6113;SDS011;3087;48.392;10.836;2022-12-29T15:05:29;3.38;;;2.88;;
6113;SDS011;3087;48.392;10.836;2022-12-29T15:08:29;3.97;;;2.15;;
6113;SDS011;3087;48.392;10.836;2022-12-29T15:11:05;4.45;;;2.08;;
6113;SDS011;3087;48.392;10.836;2022-12-29T15:13:37;2.72;;;1.90;;
6113;SDS011;3087;48.392;10.836;2022-12-29T15:16:20;2.55;;;2.35;;
6113;SDS011;3087;48.392;10.836;2022-12-29T15:18:47;3.33;;;2.30;;
6113;SDS011;3087;48.392;10.836;2022-12-29T15:21:14;4.82;;;2.30;;
6113;SDS011;3087;48.392;10.836;2022-12-29T15:23:42;3.95;;;2.50;;
6113;SDS011;3087;48.392;10.836;2022-12-29T15:26:09;3.28;;;2.22;;
6113;SDS011;3087;48.392;10.836;2022-12-29T15:28:40;3.17;;;2.17;;
6113;SDS011;3087;48.392;10.836;2022-12-29T15:31:20;2.75;;;2.20;;
6113;SDS011;3087;48.392;10.836;2022-12-29T15:33:54;2.75;;;2.10;;
6113;SDS011;3087;48.392;10.836;2022-12-29T15:36:27;2.63;;;2.20;;
6113;SDS011;3087;48.392;10.836;2022-12-29T15:38:53;3.35;;;2.95;;
6113;SDS011;3087;48.392;10.836;2022-12-29T15:44:20;2.53;;;1.80;;
6113;SDS011;3087;48.392;10.836;2022-12-29T15:46:49;2.95;;;2.33;;
6113;SDS011;3087;48.392;10.836;2022-12-29T15:49:14;2.65;;;1.95;;
6113;SDS011;3087;48.392;10.836;2022-12-29T15:51:41;3.38;;;2.08;;
6113;SDS011;3087;48.392;10.836;2022-12-29T15:54:21;2.25;;;2.05;;
6113;SDS011;3087;48.392;10.836;2022-12-29T15:56:49;3.05;;;1.90;;
6113;SDS011;3087;48.392;10.836;2022-12-29T15:59:25;2.85;;;1.90;;
6113;SDS011;3087;48.392;10.836;2022-12-29T16:01:53;2.55;;;2.17;;
6113;SDS011;3087;48.392;10.836;2022-12-29T16:04:20;3.80;;;2.13;;
6113;SDS011;3087;48.392;10.836;2022-12-29T16:06:59;3.38;;;2.00;;
6113;SDS011;3087;48.392;10.836;2022-12-29T16:12:00;4.68;;;2.40;;
6113;SDS011;3087;48.392;10.836;2022-12-29T16:16:55;2.65;;;2.30;;
6113;SDS011;3087;48.392;10.836;2022-12-29T16:19:29;3.28;;;2.45;;
6113;SDS011;3087;48.392;10.836;2022-12-29T16:22:00;3.88;;;3.10;;
6113;SDS011;3087;48.392;10.836;2022-12-29T16:24:29;3.78;;;2.50;;
6113;SDS011;3087;48.392;10.836;2022-12-29T16:29:33;4.75;;;2.85;;
6113;SDS011;3087;48.392;10.836;2022-12-29T16:32:00;3.40;;;2.55;;
6113;SDS011;3087;48.392;10.836;2022-12-29T16:34:33;5.03;;;2.30;;
6113;SDS011;3087;48.392;10.836;2022-12-29T16:42:47;5.43;;;2.20;;
6113;SDS011;3087;48.392;10.836;2022-12-29T16:48:07;2.40;;;2.10;;
6113;SDS011;3087;48.392;10.836;2022-12-29T16:50:43;4.95;;;2.15;;
6113;SDS011;3087;48.392;10.836;2022-12-29T16:56:05;4.13;;;2.50;;
6113;SDS011;3087;48.392;10.836;2022-12-29T16:58:38;4.53;;;2.65;;
6113;SDS011;3087;48.392;10.836;2022-12-29T17:01:04;4.28;;;2.45;;
6113;SDS011;3087;48.392;10.836;2022-12-29T17:03:40;4.47;;;2.45;;
6113;SDS011;3087;48.392;10.836;2022-12-29T17:06:13;2.35;;;2.13;;
6113;SDS011;3087;48.392;10.836;2022-12-29T17:08:41;4.65;;;2.60;;
6113;SDS011;3087;48.392;10.836;2022-12-29T17:11:15;4.18;;;2.75;;
6113;SDS011;3087;48.392;10.836;2022-12-29T17:14:02;4.57;;;2.50;;
6113;SDS011;3087;48.392;10.836;2022-12-29T17:16:27;3.88;;;2.35;;
6113;SDS011;3087;48.392;10.836;2022-12-29T17:18:53;2.97;;;2.50;;
6113;SDS011;3087;48.392;10.836;2022-12-29T17:21:19;4.38;;;2.83;;
6113;SDS011;3087;48.392;10.836;2022-12-29T17:23:44;3.47;;;2.35;;
6113;SDS011;3087;48.392;10.836;2022-12-29T17:26:10;3.90;;;2.20;;
6113;SDS011;3087;48.392;10.836;2022-12-29T17:28:37;2.72;;;2.40;;
6113;SDS011;3087;48.392;10.836;2022-12-29T17:31:03;5.03;;;2.63;;
6113;SDS011;3087;48.392;10.836;2022-12-29T17:33:34;4.15;;;2.70;;
6113;SDS011;3087;48.392;10.836;2022-12-29T17:36:02;6.88;;;3.10;;
6113;SDS011;3087;48.392;10.836;2022-12-29T17:38:28;3.33;;;2.33;;
6113;SDS011;3087;48.392;10.836;2022-12-29T17:41:01;4.40;;;2.90;;
6113;SDS011;3087;48.392;10.836;2022-12-29T17:43:27;3.92;;;2.75;;
6113;SDS011;3087;48.392;10.836;2022-12-29T17:45:53;3.45;;;2.75;;
6113;SDS011;3087;48.392;10.836;2022-12-29T17:48:21;4.65;;;2.90;;
6113;SDS011;3087;48.392;10.836;2022-12-29T17:50:47;6.63;;;2.75;;
6113;SDS011;3087;48.392;10.836;2022-12-29T17:53:19;4.65;;;2.97;;
6113;SDS011;3087;48.392;10.836;2022-12-29T17:55:48;5.82;;;3.10;;
6113;SDS011;3087;48.392;10.836;2022-12-29T17:58:15;5.80;;;3.55;;
6113;SDS011;3087;48.392;10.836;2022-12-29T18:00:42;6.47;;;3.60;;
6113;SDS011;3087;48.392;10.836;2022-12-29T18:03:12;3.65;;;3.00;;
6113;SDS011;3087;48.392;10.836;2022-12-29T18:05:42;3.65;;;2.92;;
6113;SDS011;3087;48.392;10.836;2022-12-29T18:08:08;3.15;;;2.83;;
6113;SDS011;3087;48.392;10.836;2022-12-29T18:10:35;4.07;;;2.80;;
6113;SDS011;3087;48.392;10.836;2022-12-29T18:13:01;3.53;;;2.80;;
6113;SDS011;3087;48.392;10.836;2022-12-29T18:15:31;5.22;;;2.55;;